• Join FlightAware (Why Join?)
  • Login
  • US Flag 
01:25AM EDT


 

Airport Tracker/Info


-or-


 

Live Flight TrackerFlight Track Log ✈ N960DL ✈ 30-May-2013 ✈ KROC - KATL

Flight Track Log - Related Links

Times and Time Zones

All times are in EDT time to prevent confusion due to time zone crossing. See the N960DL flight status page for this flight to view local times or setup timezone preferences in your user account.

Time Position Orientation Groundspeed Altitude Reporting Facility
EDT Latitude Longitude Course Direction KTS MPH feet Rate Location/Type
06:29AM 43.0953 -77.7003 252° West 145 167 1,800  Level Cleveland Center
06:29AM 43.0789 -77.7067 196° South 169 194 2,000 1,560 Climbing Cleveland Center
06:30AM 43.0211 -77.7264 194° South 234 269 3,900 2,340 Climbing Cleveland Center
06:31AM 42.9464 -77.7439 190° South 260 299 6,700 3,000 Climbing Cleveland Center
06:32AM 42.6557 -77.7850 192° South  Level FlightAware Approximate
06:32AM 42.8697 -77.7644 191° South 276 318 10,000  Level Cleveland Center
06:33AM 42.5419 -77.8247 216° Southwest  Level FlightAware Approximate
06:33AM 42.7869 -77.7822 189° South 296 341 11,600  Level Cleveland Center
06:34AM 42.4887 -77.9506 252° West  Level FlightAware Approximate
06:34AM 42.6833 -77.8067 190° South 335 386 13,300  Level Cleveland Center
06:35AM 42.5756 -77.8342 191° South 376 433 15,900 2,340 Climbing Cleveland Center
06:36AM 42.4894 -77.8997 209° Southwest 395 455 18,000 1,860 Climbing Cleveland Center
06:37AM 42.4108 -78.0128 227° Southwest 395 455 19,700 1,680 Climbing Cleveland Center
06:38AM 42.3300 -78.1283 227° Southwest 416 479 21,400 1,680 Climbing Cleveland Center
06:39AM 42.2469 -78.2494 227° Southwest 429 494 23,100 1,740 Climbing Cleveland Center
06:40AM 42.1597 -78.3675 225° Southwest 436 502 24,900 1,800 Climbing Cleveland Center
06:41AM 42.0744 -78.4881 226° Southwest 442 509 26,800 1,860 Climbing Cleveland Center
06:42AM 41.9911 -78.6108 228° Southwest 442 509 28,700 1,560 Climbing Cleveland Center
06:43AM 41.9075 -78.7278 226° Southwest 437 503 30,000 600 Climbing Cleveland Center
06:44AM 41.8239 -78.8444 226° Southwest 437 503 30,000 120 Level Cleveland Center
06:45AM 41.7400 -78.9608 226° Southwest 437 503 30,300 780 Climbing Cleveland Center
06:46AM 41.6583 -79.0769 227° Southwest 432 497 31,600 1,200 Climbing Cleveland Center
06:47AM 41.5764 -79.1925 227° Southwest 432 497 32,700 900 Climbing Cleveland Center
06:48AM 41.4942 -79.3053 226° Southwest 432 497 33,400 600 Climbing Cleveland Center
06:49AM 41.4039 -79.4314 226° Southwest 432 497 34,000 300 Climbing Cleveland Center
06:50AM 41.3217 -79.5408 225° Southwest 427 491 34,000  Level Cleveland Center
06:51AM 41.2392 -79.6525 226° Southwest 427 491 34,000  Level Cleveland Center
06:52AM 41.1567 -79.7614 225° Southwest 427 491 34,000  Level Cleveland Center
06:53AM 41.0739 -79.8725 225° Southwest 427 491 34,000  Level Cleveland Center
06:54AM 40.9933 -79.9833 226° Southwest 427 491 34,000  Level Cleveland Center
06:55AM 40.9125 -80.0942 226° Southwest 427 491 34,000  Level Cleveland Center
06:56AM 40.8275 -80.2044 224° Southwest 427 491 34,000  Level Cleveland Center
06:57AM 40.7150 -80.2544 199° South 432 497 34,000  Level Cleveland Center
06:58AM 40.5983 -80.2933 194° South 422 486 34,000  Level Cleveland Center
06:59AM 40.4797 -80.3319 194° South 433 498 34,000  Level Cleveland Center
07:00AM 40.3672 -80.3733 196° South 433 498 34,000  Level Cleveland Center
07:01AM 40.2608 -80.4036 192° South 433 498 34,000  Level Cleveland Center
07:02AM 40.1442 -80.4419 194° South 433 498 34,000  Level Cleveland Center
07:03AM 40.0275 -80.4800 194° South 433 498 34,000  Level Cleveland Center
07:04AM 39.9108 -80.5181 194° South 433 498 34,000  Level Cleveland Center
07:05AM 39.7664 -80.5633 194° South 433 498 34,000  Level Indianapolis Center
07:06AM 39.6381 -80.6483 207° Southwest 435 501 34,000  Level Indianapolis Center
07:08AM 39.5392 -80.7381 215° Southwest 432 497 34,000  Level Indianapolis Center
07:09AM 39.4386 -80.8247 214° Southwest 433 498 34,000  Level Indianapolis Center
07:10AM 39.3472 -80.9264 221° Southwest 432 497 34,000  Level Indianapolis Center
07:11AM 39.2558 -81.0314 222° Southwest 438 504 34,000  Level Indianapolis Center
07:12AM 39.1653 -81.1381 222° Southwest 440 506 34,000  Level Indianapolis Center
07:13AM 39.0678 -81.2322 217° Southwest 441 507 34,000  Level Indianapolis Center
07:14AM 38.9603 -81.3108 210° Southwest 444 511 34,000  Level Indianapolis Center
07:15AM 38.8533 -81.3914 210° Southwest 443 510 34,000  Level Indianapolis Center
07:16AM 38.7214 -81.4667 204° Southwest 453 521 34,000  Level Indianapolis Center
07:17AM 38.6028 -81.5211 200° South 452 520 34,000  Level Indianapolis Center
07:18AM 38.4808 -81.5372 186° South 466 536 34,000  Level Indianapolis Center
07:19AM 38.3542 -81.5533 186° South 458 527 34,000  Level Indianapolis Center
07:20AM 38.2311 -81.5886 193° South 456 525 34,000  Level Indianapolis Center
07:21AM 38.1131 -81.6444 200° South 450 518 34,000  Level Indianapolis Center
07:22AM 37.9956 -81.7022 201° Southwest 451 519 34,000  Level Indianapolis Center
07:23AM 37.8544 -81.7714 201° Southwest 451 519 34,000  Level Indianapolis Center
07:24AM 37.7328 -81.8289 200° South 453 521 34,000  Level Indianapolis Center
07:25AM 37.6142 -81.8878 201° Southwest 456 525 34,000  Level Indianapolis Center
07:26AM 37.4989 -81.9461 202° Southwest 449 517 34,000  Level Indianapolis Center
07:27AM 37.3811 -82.0042 201° Southwest 450 518 34,000  Level Indianapolis Center
07:28AM 37.2642 -82.0633 202° Southwest 451 519 34,000  Level Indianapolis Center
07:29AM 37.1486 -82.1200 201° Southwest 445 512 34,000  Level Indianapolis Center
07:30AM 37.0328 -82.1772 202° Southwest 445 512 34,000  Level Indianapolis Center
07:31AM 36.9156 -82.2344 201° Southwest 447 514 34,000  Level Indianapolis Center
07:32AM 36.7989 -82.2917 201° Southwest 446 513 34,000  Level Indianapolis Center
07:33AM 36.6822 -82.3478 201° Southwest 445 512 34,000  Level Indianapolis Center
07:34AM 36.5642 -82.4050 201° Southwest 449 517 34,000  Level Indianapolis Center
07:35AM 36.4475 -82.4625 202° Southwest 449 517 34,000  Level Indianapolis Center
07:36AM 36.3108 -82.5303 202° Southwest 449 517 34,000  Level Indianapolis Center
07:37AM 36.1942 -82.5858 201° Southwest 448 516 34,000  Level Indianapolis Center
07:38AM 36.0778 -82.6428 202° Southwest 446 513 34,000  Level Indianapolis Center
07:39AM 35.9611 -82.6986 201° Southwest 447 514 34,000  Level Indianapolis Center
07:40AM 35.8453 -82.7553 202° Southwest 447 514 34,000  Level Indianapolis Center
07:41AM 35.7267 -82.8133 202° Southwest 446 513 34,000  Level Atlanta Center
07:42AM 35.6106 -82.8689 201° Southwest 446 513 34,000 -300 Level Atlanta Center
07:43AM 35.5003 -82.9239 202° Southwest 446 513 33,400 -900 Descending Atlanta Center
07:44AM 35.3925 -82.9967 209° Southwest 446 513 32,200 -1,200 Descending Atlanta Center
07:45AM 35.2911 -83.0794 214° Southwest 446 513 31,000 -1,200 Descending Atlanta Center
07:46AM 35.1769 -83.1722 214° Southwest 451 519 29,800 -960 Descending Atlanta Center
07:47AM 35.0753 -83.2572 214° Southwest 451 519 29,100 -900 Descending Atlanta Center
07:48AM 34.9672 -83.3442 213° Southwest 461 531 28,000 -1,020 Descending Atlanta Center
07:49AM 34.8592 -83.4314 214° Southwest 461 531 27,100 -900 Descending Atlanta Center
07:50AM 34.7553 -83.5156 214° Southwest 461 531 26,300 -1,320 Descending Atlanta Center
07:51AM 34.6553 -83.5919 212° Southwest 453 521 24,500 -2,220 Descending Atlanta Center
07:52AM 34.5597 -83.6731 215° Southwest 438 504 21,900 -2,400 Descending Atlanta Center
07:53AM 34.4639 -83.7467 212° Southwest 422 486 19,700 -2,280 Descending Atlanta Center
07:54AM 34.3742 -83.8172 213° Southwest 411 473 17,400 -2,400 Descending Atlanta Center
07:55AM 34.2867 -83.8881 214° Southwest 399 459 15,000 -2,220 Descending Atlanta Center
07:56AM 34.2011 -83.9558 213° Southwest 384 442 13,000 -1,380 Descending Atlanta Center
07:57AM 34.1197 -84.0236 215° Southwest 372 428 12,300 -780 Descending Atlanta Center
07:58AM 34.0833 -84.0500 211° Southwest 351 404 12,000 -240 Descending Atlanta TRACON
07:59AM 34.0000 -84.1167 214° Southwest 356 410 12,000  Level Atlanta TRACON
07:59AM 33.9653 -84.1539 222° Southwest 358 412 12,000  Level Atlanta Center
08:00AM 33.8839 -84.2214 215° Southwest 358 412 12,000  Level Atlanta Center
08:01AM 33.8500 -84.2500 215° Southwest 360 414 12,000  Level Atlanta TRACON
08:02AM 33.7667 -84.3167 214° Southwest 310 357 12,000 -300 Level Atlanta TRACON
08:03AM 33.7333 -84.3833 239° Southwest 270 311 11,500 -900 Descending Atlanta TRACON
08:04AM 33.7333 -84.4667 270° West 253 291 10,200 -1,380 Descending Atlanta TRACON
08:05AM 33.7333 -84.5500 270° West 239 275 8,800 -1,440 Descending Atlanta TRACON
08:06AM 33.7333 -84.6333 270° West 236 272 7,400 -1,440 Descending Atlanta TRACON
08:07AM 33.7333 -84.7000 270° West 233 268 6,000 -1,320 Descending Atlanta TRACON
08:08AM 33.7333 -84.7833 270° West 223 257 5,000 -540 Descending Atlanta TRACON
08:09AM 33.7167 -84.8500 253° West 227 261 5,000  Level Atlanta TRACON
08:10AM 33.6500 -84.8500 180° South 210 242 5,000  Level Atlanta TRACON
08:11AM 33.6500 -84.7833 90° East 209 241 5,000  Level Atlanta TRACON
08:12AM 33.6500 -84.7167 90° East 209 241 5,000  Level Atlanta TRACON